STL weather

St Louis Lambert International Airport
St Louis, Missouri, United States

Public forecast

Using degrees Fahrenheit for public forecast. Weather courtesy of forecast.io.

METAR (pilot weather report)

Retrieved 2018/01/20 15:51 UTC (43 minutes ago):

KSTL 201551Z 23011KT 10SM BKN018 BKN150 09/03 A3004 RMK AO2 SLP177 T00890028

TAF (pilot weather forecast)

Retrieved 2018/01/20 12:42 UTC (4 hours ago):

TAF KSTL 201140Z 2012/2118 VRB05KT P6SM BKN200 FM201600 20008KT P6SM OVC015 FM202000 19007KT P6SM OVC025 FM210300 16008KT P6SM OVC015 FM210600 16007KT 4SM BR OVC010